Time;durP1;ratioP1;P1;durP2;ratioP2;P2;SDS_P1;SDS_P2;PMS_P1;PMS_P2;Temp;Humidity;BMP_temperature;BMP_pressure;BME280_temperature;BME280_humidity;BME280_pressure;Samples;Min_cycle;Max_cycle;Signal;HPM_P1;HPM_P2
2021/07/26 00:00:11;;;;;;;1.20;0.90;;;;;;;20.46;65.55;98338.19;5122457;27;41191;-85
2021/07/26 00:02:43;;;;;;;1.30;0.90;;;;;;;20.49;66.12;98351.31;5122636;27;39776;-85
2021/07/26 00:05:11;;;;;;;0.60;0.60;;;;;;;20.46;65.89;98351.63;5128042;27;41922;-85
2021/07/26 00:07:39;;;;;;;0.97;0.70;;;;;;;20.30;66.13;98337.16;5114668;27;41721;-85
2021/07/26 00:10:08;;;;;;;1.10;1.00;;;;;;;20.28;66.14;98336.50;5122286;27;42600;-83
2021/07/26 00:12:38;;;;;;;1.00;0.90;;;;;;;20.31;66.28;98346.91;5121368;27;39967;-83
2021/07/26 00:15:07;;;;;;;1.60;1.20;;;;;;;20.25;66.26;98347.59;5130990;27;41538;-85
2021/07/26 00:17:35;;;;;;;1.13;1.03;;;;;;;20.26;66.54;98357.34;5134834;27;42875;-84
2021/07/26 00:20:04;;;;;;;1.73;1.17;;;;;;;20.19;66.71;98339.34;5141588;27;42494;-83
2021/07/26 00:22:31;;;;;;;1.47;1.23;;;;;;;20.04;67.39;98315.00;5142211;27;40823;-84
2021/07/26 00:24:59;;;;;;;1.67;1.03;;;;;;;20.23;67.70;98344.25;5140054;27;41594;-84
2021/07/26 00:27:26;;;;;;;0.80;0.80;;;;;;;20.22;67.87;98344.41;5154683;27;41840;-81
2021/07/26 00:30:01;;;;;;;1.57;1.30;;;;;;;20.11;68.35;98318.72;5162871;27;43816;-80
2021/07/26 00:32:29;;;;;;;1.53;1.03;;;;;;;20.23;68.76;98338.03;5157632;27;39193;-83
2021/07/26 00:35:03;;;;;;;1.77;1.37;;;;;;;20.22;69.04;98341.72;5150099;27;40790;-82
2021/07/26 00:37:31;;;;;;;1.00;0.90;;;;;;;20.12;68.64;98323.06;5143289;27;42030;-85
2021/07/26 00:40:00;;;;;;;1.67;1.10;;;;;;;20.19;68.97;98337.50;5163706;27;41822;-81
2021/07/26 00:42:28;;;;;;;1.10;1.00;;;;;;;20.15;68.56;98335.34;5158037;27;40562;-83
2021/07/26 00:44:56;;;;;;;1.03;1.00;;;;;;;20.15;68.63;98341.56;5141751;27;40478;-82
2021/07/26 00:47:25;;;;;;;1.30;1.20;;;;;;;20.03;68.67;98329.44;5142940;27;43914;-83
2021/07/26 00:49:52;;;;;;;0.87;0.87;;;;;;;20.07;68.47;98322.72;5137693;27;43214;-82
2021/07/26 00:52:20;;;;;;;1.50;1.40;;;;;;;20.08;68.28;98321.72;5127809;27;39908;-83
2021/07/26 00:54:48;;;;;;;0.70;0.70;;;;;;;20.02;67.94;98314.34;5145528;27;41812;-84
2021/07/26 00:57:17;;;;;;;0.80;0.80;;;;;;;20.02;68.13;98325.94;5143232;27;43073;-83
2021/07/26 00:59:45;;;;;;;1.23;1.03;;;;;;;19.98;68.34;98321.06;5154724;27;41392;-82
2021/07/26 01:02:12;;;;;;;0.87;0.87;;;;;;;19.92;68.25;98310.97;5136339;27;38812;-85
2021/07/26 01:04:41;;;;;;;1.03;1.00;;;;;;;19.82;68.33;98313.00;5125631;27;40835;-85
2021/07/26 01:07:09;;;;;;;1.37;1.03;;;;;;;19.65;68.54;98291.50;5138637;27;43091;-86
2021/07/26 01:09:37;;;;;;;0.97;0.90;;;;;;;19.78;68.16;98312.47;5139983;27;41077;-84
2021/07/26 01:12:06;;;;;;;1.57;1.30;;;;;;;19.70;68.44;98312.47;5140515;27;39366;-83
2021/07/26 01:14:34;;;;;;;0.90;0.90;;;;;;;19.79;68.66;98337.50;5130845;27;41860;-85
2021/07/26 01:17:02;;;;;;;1.40;1.20;;;;;;;19.78;68.55;98335.84;5130354;27;42897;-85
2021/07/26 01:19:30;;;;;;;1.30;1.20;;;;;;;19.69;68.73;98325.06;5123932;27;41794;-84
2021/07/26 01:22:00;;;;;;;2.03;1.20;;;;;;;19.79;68.72;98340.19;5141648;27;39978;-83
2021/07/26 01:24:27;;;;;;;0.70;0.70;;;;;;;19.78;68.56;98355.47;5122654;27;40624;-85
2021/07/26 01:26:55;;;;;;;1.37;0.97;;;;;;;19.78;68.79;98343.91;5121905;27;42216;-84
2021/07/26 01:29:25;;;;;;;0.60;0.60;;;;;;;19.78;69.33;98341.22;5146695;27;42134;-84
2021/07/26 01:31:52;;;;;;;1.20;1.10;;;;;;;19.65;69.24;98328.28;5132974;27;40096;-85
2021/07/26 01:34:20;;;;;;;0.90;0.90;;;;;;;19.69;69.72;98330.44;5124787;27;40677;-85
2021/07/26 01:36:47;;;;;;;1.37;1.27;;;;;;;19.77;70.04;98353.81;5122426;27;42676;-85
2021/07/26 01:39:16;;;;;;;1.40;1.03;;;;;;;19.76;69.94;98348.59;5140968;27;42018;-82
2021/07/26 01:41:44;;;;;;;2.00;1.23;;;;;;;19.76;69.91;98345.91;5120953;27;38990;-84
2021/07/26 01:44:13;;;;;;;1.30;1.07;;;;;;;19.66;69.88;98333.44;5135355;27;40928;-86
2021/07/26 01:47:04;;;;;;;1.07;0.93;;;;;;;19.78;69.84;98349.28;5111721;27;41838;-84
2021/07/26 01:49:49;;;;;;;1.23;0.93;;;;;;;19.73;69.83;98349.75;5126678;27;42684;-83
2021/07/26 01:52:17;;;;;;;0.90;0.90;;;;;;;19.73;69.32;98337.19;5122474;27;39935;-84
2021/07/26 01:54:46;;;;;;;0.73;0.73;;;;;;;19.68;69.53;98335.97;5140087;27;41121;-84
2021/07/26 01:57:14;;;;;;;1.30;1.13;;;;;;;19.69;69.52;98346.56;5120282;27;41966;-85
2021/07/26 01:59:42;;;;;;;0.53;0.53;;;;;;;19.75;69.33;98355.81;5125735;27;41798;-85
2021/07/26 02:02:10;;;;;;;0.93;0.87;;;;;;;19.73;69.48;98355.13;5150250;27;40942;-85
2021/07/26 02:04:37;;;;;;;0.80;0.80;;;;;;;19.72;69.29;98367.72;5144920;27;40951;-86
2021/07/26 02:07:06;;;;;;;1.40;1.10;;;;;;;19.73;69.39;98374.78;5139587;27;42971;-85
2021/07/26 02:09:34;;;;;;;0.97;0.87;;;;;;;19.71;69.48;98374.09;5113468;27;41052;-86
2021/07/26 02:12:04;;;;;;;0.60;0.60;;;;;;;19.70;69.77;98385.03;5128718;27;39258;-85
2021/07/26 02:14:32;;;;;;;0.93;0.87;;;;;;;19.70;69.67;98387.69;5119867;27;40759;-84
2021/07/26 02:17:00;;;;;;;0.87;0.87;;;;;;;19.68;69.55;98387.88;5128947;27;41875;-83
2021/07/26 02:19:27;;;;;;;1.43;1.20;;;;;;;19.58;69.55;98379.13;5131259;27;41756;-82
2021/07/26 02:21:55;;;;;;;1.10;0.97;;;;;;;19.58;70.02;98379.13;5121183;27;38968;-85
2021/07/26 02:24:22;;;;;;;0.47;0.47;;;;;;;19.56;69.85;98389.19;5138989;27;41053;-84
2021/07/26 02:26:50;;;;;;;0.83;0.80;;;;;;;19.60;69.74;98390.53;5121937;27;42238;-84
2021/07/26 02:29:19;;;;;;;0.73;0.70;;;;;;;19.48;69.53;98385.59;5121376;27;41175;-83
2021/07/26 02:31:47;;;;;;;1.07;1.00;;;;;;;19.48;69.74;98386.44;5127446;27;38935;-85
2021/07/26 02:34:14;;;;;;;0.93;0.93;;;;;;;19.52;69.57;98395.91;5147419;27;40679;-83
2021/07/26 02:36:42;;;;;;;0.60;0.60;;;;;;;19.31;69.56;98373.97;5137427;27;43028;-85
2021/07/26 02:39:09;;;;;;;0.80;0.80;;;;;;;19.37;69.79;98394.81;5136104;27;42480;-85
2021/07/26 02:41:37;;;;;;;1.10;1.00;;;;;;;19.44;70.18;98403.03;5111412;27;39835;-83
2021/07/26 02:44:05;;;;;;;1.17;1.00;;;;;;;19.23;69.92;98377.47;5134627;27;40688;-84
2021/07/26 02:46:34;;;;;;;0.70;0.70;;;;;;;19.35;69.95;98405.72;5146360;27;43827;-82
2021/07/26 02:49:02;;;;;;;0.80;0.77;;;;;;;19.31;70.08;98400.81;5153466;27;42303;-86
2021/07/26 02:51:29;;;;;;;0.80;0.80;;;;;;;19.23;69.94;98392.72;5144201;27;40280;-85
2021/07/26 02:53:57;;;;;;;0.93;0.93;;;;;;;19.23;69.92;98392.72;5142783;27;41898;-85
2021/07/26 02:56:32;;;;;;;0.90;0.70;;;;;;;19.23;70.43;98398.94;5143987;27;43779;-84
2021/07/26 02:58:59;;;;;;;1.40;1.30;;;;;;;19.06;70.47;98369.50;5124929;27;41403;-85
2021/07/26 03:01:27;;;;;;;0.87;0.87;;;;;;;19.23;70.69;98401.63;5119666;27;39557;-86
2021/07/26 03:03:56;;;;;;;0.90;0.83;;;;;;;19.21;70.75;98408.16;5115127;27;40645;-85
2021/07/26 03:06:24;;;;;;;0.83;0.83;;;;;;;19.16;70.68;98407.81;5133037;27;43879;-84
2021/07/26 03:08:52;;;;;;;0.73;0.73;;;;;;;19.00;70.68;98397.84;5122177;27;41324;-83
2021/07/26 03:11:19;;;;;;;1.07;0.97;;;;;;;19.09;70.97;98412.13;5141781;27;38751;-85
2021/07/26 03:13:47;;;;;;;0.50;0.47;;;;;;;19.05;70.65;98410.75;5123830;27;41005;-86
2021/07/26 03:16:16;;;;;;;0.87;0.83;;;;;;;18.98;70.63;98414.09;5126141;27;41749;-84
2021/07/26 03:18:44;;;;;;;1.30;1.20;;;;;;;19.01;70.59;98421.84;5152668;27;41299;-85
2021/07/26 03:21:17;;;;;;;0.50;0.50;;;;;;;18.98;70.93;98427.50;5150489;27;40456;-82
2021/07/26 03:23:45;;;;;;;0.90;0.90;;;;;;;18.96;70.87;98420.63;5124314;27;42505;-83
2021/07/26 03:26:13;;;;;;;0.80;0.80;;;;;;;18.89;70.97;98409.69;5125193;27;41951;-84
2021/07/26 03:28:41;;;;;;;1.00;0.80;;;;;;;18.87;71.47;98414.38;5141520;27;42452;-84
2021/07/26 03:31:09;;;;;;;1.87;0.83;;;;;;;18.73;71.14;98414.94;5123561;27;38691;-85
2021/07/26 03:33:36;;;;;;;1.50;1.37;;;;;;;18.61;71.00;98409.00;5115547;27;40934;-81
2021/07/26 03:36:04;;;;;;;1.40;1.30;;;;;;;18.64;71.13;98418.59;5117009;27;41954;-84
2021/07/26 03:38:33;;;;;;;1.40;1.30;;;;;;;18.70;71.27;98438.56;5122940;27;42089;-85
2021/07/26 03:41:01;;;;;;;1.43;1.00;;;;;;;18.68;70.95;98436.03;5124963;27;38897;-85
2021/07/26 03:43:30;;;;;;;1.47;1.37;;;;;;;18.58;71.08;98422.72;5142678;27;40841;-84
2021/07/26 03:45:57;;;;;;;1.00;0.90;;;;;;;18.49;71.03;98410.22;5122950;27;43297;-87
2021/07/26 03:48:25;;;;;;;1.30;1.20;;;;;;;18.42;71.21;98411.84;5140987;27;43167;-84
2021/07/26 03:50:52;;;;;;;0.90;0.73;;;;;;;18.59;71.50;98442.34;5137728;27;40332;-83
2021/07/26 03:53:20;;;;;;;0.90;0.83;;;;;;;18.57;71.63;98439.78;5131660;27;41923;-85
2021/07/26 03:55:49;;;;;;;0.70;0.70;;;;;;;18.56;71.43;98437.25;5113024;27;41795;-84
2021/07/26 03:58:16;;;;;;;1.60;1.20;;;;;;;18.50;71.88;98421.81;5130841;27;43312;-87
2021/07/26 04:00:44;;;;;;;1.47;1.03;;;;;;;18.53;71.79;98432.22;5123917;27;40133;-85
2021/07/26 04:03:17;;;;;;;1.03;1.03;;;;;;;18.40;71.73;98421.06;5121866;27;41161;-82
2021/07/26 04:05:47;;;;;;;1.00;0.80;;;;;;;18.41;71.61;98433.47;5140466;27;42132;-85
2021/07/26 04:08:17;;;;;;;1.20;1.00;;;;;;;18.48;71.40;98450.59;5123659;27;41225;-84
2021/07/26 04:10:47;;;;;;;0.93;0.93;;;;;;;18.27;71.45;98416.94;5151680;27;40399;-86
2021/07/26 04:13:16;;;;;;;1.20;0.97;;;;;;;18.46;71.90;98458.81;5148065;27;40814;-82
2021/07/26 04:15:45;;;;;;;0.83;0.83;;;;;;;18.45;71.93;98461.63;5123278;27;43410;-85
2021/07/26 04:18:13;;;;;;;1.13;1.03;;;;;;;18.37;71.52;98443.66;5120725;27;42640;-86
2021/07/26 04:20:41;;;;;;;0.87;0.80;;;;;;;18.44;71.82;98462.63;5113805;27;38793;-83
2021/07/26 04:23:11;;;;;;;1.00;0.90;;;;;;;18.43;71.77;98469.81;5130836;27;42324;-83
2021/07/26 04:25:39;;;;;;;0.83;0.83;;;;;;;18.35;71.49;98451.00;5131775;27;43308;-84
2021/07/26 04:28:07;;;;;;;1.33;1.10;;;;;;;18.36;71.94;98451.84;5116386;27;42523;-85
2021/07/26 04:30:36;;;;;;;1.03;0.93;;;;;;;18.46;72.07;98463.31;5130453;27;39928;-83
2021/07/26 04:33:03;;;;;;;0.60;0.60;;;;;;;18.48;72.05;98469.38;5131158;27;42761;-80
2021/07/26 04:35:31;;;;;;;1.10;1.00;;;;;;;18.36;71.75;98449.16;5151799;27;43806;-80
2021/07/26 04:37:58;;;;;;;0.53;0.53;;;;;;;18.50;71.61;98465.53;5151456;27;42660;-80
2021/07/26 04:40:26;;;;;;;1.30;1.20;;;;;;;18.54;71.72;98476.81;5151699;27;39808;-81
2021/07/26 04:42:55;;;;;;;1.50;1.33;;;;;;;18.54;71.70;98471.44;5133318;27;41773;-81
2021/07/26 04:45:22;;;;;;;1.10;1.03;;;;;;;18.59;72.00;98479.88;5132961;27;43504;-81
2021/07/26 04:47:51;;;;;;;1.40;1.10;;;;;;;18.53;71.70;98469.75;5132870;27;42059;-80
2021/07/26 04:50:19;;;;;;;1.40;1.30;;;;;;;18.37;71.69;98434.75;5152675;27;40177;-80
2021/07/26 04:52:47;;;;;;;1.00;1.00;;;;;;;18.53;71.61;98443.78;5150565;27;41580;-81
2021/07/26 04:55:15;;;;;;;1.43;1.10;;;;;;;18.67;72.08;98472.72;5133986;27;43185;-82
2021/07/26 04:58:01;;;;;;;1.83;1.40;;;;;;;18.61;72.25;98459.13;5151460;27;43105;-80
2021/07/26 05:00:29;;;;;;;0.90;0.70;;;;;;;18.67;71.96;98477.25;5151354;27;40131;-80
2021/07/26 05:02:59;;;;;;;1.50;1.33;;;;;;;18.69;71.77;98477.94;5150105;27;40658;-80
2021/07/26 05:05:27;;;;;;;1.53;1.43;;;;;;;18.68;72.14;98476.25;5132948;27;42256;-80
2021/07/26 05:07:54;;;;;;;1.50;1.17;;;;;;;18.62;72.16;98463.50;5149210;27;42575;-80
2021/07/26 05:10:22;;;;;;;1.00;1.00;;;;;;;18.69;72.23;98464.53;5149642;27;40180;-81
2021/07/26 05:12:49;;;;;;;0.93;0.90;;;;;;;18.70;71.70;98450.13;5149950;27;40768;-80
2021/07/26 05:15:16;;;;;;;1.60;1.40;;;;;;;18.88;72.81;98475.09;5132157;27;41748;-80
2021/07/26 05:17:44;;;;;;;1.33;1.23;;;;;;;19.00;72.17;98484.56;5132444;27;42544;-80
2021/07/26 05:20:14;;;;;;;1.47;1.33;;;;;;;19.12;71.83;98479.75;5133121;27;39056;-80
2021/07/26 05:22:41;;;;;;;2.13;1.20;;;;;;;19.25;71.75;98490.06;5131991;27;40816;-81
2021/07/26 05:25:10;;;;;;;1.67;1.57;;;;;;;19.29;71.38;98472.63;5133113;27;43079;-81
2021/07/26 05:27:38;;;;;;;2.57;1.37;;;;;;;19.46;71.82;98485.13;5132189;27;41444;-81
2021/07/26 05:30:08;;;;;;;1.67;1.57;;;;;;;19.56;71.58;98475.13;5149777;27;40749;-80
2021/07/26 05:32:35;;;;;;;1.43;1.33;;;;;;;19.74;71.37;98477.72;5149530;27;40723;-81
2021/07/26 05:35:03;;;;;;;1.20;1.10;;;;;;;19.84;70.94;98474.91;5150653;27;43236;-81
2021/07/26 05:37:32;;;;;;;1.30;1.20;;;;;;;20.03;71.14;98480.81;5150381;27;42636;-81
2021/07/26 05:39:59;;;;;;;1.97;1.80;;;;;;;20.19;70.63;98477.31;5151970;27;40429;-80
2021/07/26 05:42:28;;;;;;;1.50;1.40;;;;;;;20.20;70.80;98460.19;5132909;27;42702;-80
2021/07/26 05:44:56;;;;;;;0.97;0.93;;;;;;;20.48;70.60;98476.06;5091913;27;43279;-82
2021/07/26 05:47:24;;;;;;;1.43;1.20;;;;;;;20.63;70.29;98485.13;5135057;27;42333;-82
2021/07/26 05:49:51;;;;;;;2.73;1.47;;;;;;;20.76;70.29;98480.94;5148846;27;39597;-81
2021/07/26 05:52:19;;;;;;;2.07;1.57;;;;;;;20.91;70.26;98470.28;5125728;27;40839;-80
2021/07/26 05:54:48;;;;;;;1.20;1.10;;;;;;;21.04;69.89;98472.47;5127872;27;43178;-79
2021/07/26 05:57:17;;;;;;;1.57;1.40;;;;;;;21.16;69.80;98466.53;5111283;27;41550;-82
2021/07/26 05:59:45;;;;;;;1.53;1.30;;;;;;;21.19;69.74;98448.41;5128482;27;40156;-79
2021/07/26 06:02:13;;;;;;;2.73;2.00;;;;;;;21.43;69.84;98461.78;5111234;27;40536;-78
2021/07/26 06:04:41;;;;;;;2.07;1.97;;;;;;;21.53;69.19;98451.63;5126796;27;42945;-79
2021/07/26 06:07:09;;;;;;;1.47;1.33;;;;;;;21.73;69.42;98462.84;5127997;27;42921;-80
2021/07/26 06:09:39;;;;;;;1.30;1.10;;;;;;;21.91;68.66;98471.50;5137231;27;38875;-80
2021/07/26 06:12:08;;;;;;;1.10;1.00;;;;;;;22.12;68.52;98479.00;5148839;27;40813;-78
2021/07/26 06:14:37;;;;;;;1.63;1.53;;;;;;;22.34;67.96;98464.69;5149180;27;41602;-78
2021/07/26 06:17:05;;;;;;;1.70;1.33;;;;;;;22.57;67.67;98468.22;5126742;27;42294;-78
2021/07/26 06:19:32;;;;;;;1.37;1.27;;;;;;;22.77;66.85;98457.75;5135302;27;40164;-79
2021/07/26 06:22:01;;;;;;;1.90;1.20;;;;;;;23.00;65.95;98457.72;5134849;27;40772;-77
2021/07/26 06:24:28;;;;;;;1.23;1.13;;;;;;;23.17;65.32;98461.94;5135678;27;41887;-79
2021/07/26 06:26:58;;;;;;;1.93;1.20;;;;;;;23.27;65.09;98462.50;5153066;27;42484;-77
2021/07/26 06:29:28;;;;;;;1.43;1.27;;;;;;;23.42;64.04;98464.34;5153431;27;40356;-76
2021/07/26 06:31:57;;;;;;;1.10;1.00;;;;;;;23.53;64.15;98437.72;5152015;27;41374;-80
2021/07/26 06:34:24;;;;;;;1.10;1.10;;;;;;;23.79;63.88;98453.44;5153336;27;43017;-76
2021/07/26 06:36:52;;;;;;;1.63;1.27;;;;;;;23.88;63.61;98471.22;5145760;27;42820;-81
2021/07/26 06:39:19;;;;;;;0.93;0.93;;;;;;;23.78;63.13;98473.41;5116467;27;38942;-76
2021/07/26 06:41:47;;;;;;;1.57;1.47;;;;;;;23.79;62.98;98477.78;5131030;27;42683;-80
2021/07/26 06:44:14;;;;;;;1.47;1.37;;;;;;;23.91;63.54;98472.72;5133435;27;43740;-81
2021/07/26 06:46:43;;;;;;;1.80;1.67;;;;;;;24.05;63.26;98476.41;5130193;27;40416;-76
2021/07/26 06:49:10;;;;;;;3.17;1.50;;;;;;;24.19;62.35;98470.13;5152664;27;38968;-74
2021/07/26 06:51:38;;;;;;;1.40;1.00;;;;;;;24.53;61.84;98481.13;5150889;27;42010;-74
2021/07/26 06:54:05;;;;;;;1.50;1.20;;;;;;;24.95;60.30;98477.56;5114155;27;41918;-79
2021/07/26 06:56:33;;;;;;;0.90;0.90;;;;;;;25.14;60.02;98475.19;5143439;27;43014;-77
2021/07/26 06:59:00;;;;;;;1.70;1.00;;;;;;;25.11;59.87;98476.44;5151822;27;38869;-76
2021/07/26 07:01:28;;;;;;;1.20;1.20;;;;;;;25.09;59.86;98473.09;5150376;27;41555;-76
2021/07/26 07:03:57;;;;;;;1.53;1.43;;;;;;;25.05;59.32;98472.66;5153173;27;42618;-76
2021/07/26 07:06:27;;;;;;;1.20;1.10;;;;;;;25.03;59.28;98473.88;5150410;27;41343;-75
2021/07/26 07:08:55;;;;;;;1.73;1.23;;;;;;;24.98;59.26;98479.03;5150522;27;41112;-77
2021/07/26 07:11:24;;;;;;;1.50;1.10;;;;;;;24.88;58.79;98486.63;5133267;27;41900;-84
2021/07/26 07:13:53;;;;;;;1.53;1.10;;;;;;;24.81;59.43;98480.34;5133593;27;41330;-74
2021/07/26 07:16:22;;;;;;;1.60;1.27;;;;;;;24.80;59.25;98484.91;5138099;27;42398;-75
2021/07/26 07:18:51;;;;;;;0.90;0.90;;;;;;;24.86;59.97;98477.84;5130896;27;38372;-82
2021/07/26 07:21:22;;;;;;;0.97;0.90;;;;;;;25.16;59.03;98479.38;5132189;27;42200;-74
2021/07/26 07:23:50;;;;;;;1.73;1.63;;;;;;;25.59;57.82;98495.53;5112362;27;44145;-80
2021/07/26 07:26:18;;;;;;;1.30;1.07;;;;;;;26.15;55.45;98503.50;5138112;27;42627;-73
2021/07/26 07:28:46;;;;;;;1.30;1.20;;;;;;;26.67;53.93;98495.53;5139919;27;41103;-81
2021/07/26 07:31:17;;;;;;;0.90;0.90;;;;;;;27.54;53.04;98514.34;5132514;27;40684;-78
2021/07/26 07:33:44;;;;;;;1.73;1.13;;;;;;;28.38;50.48;98515.31;5151745;27;44026;-75
2021/07/26 07:36:12;;;;;;;1.43;1.30;;;;;;;28.93;48.69;98530.91;5151691;27;42528;-78
2021/07/26 07:38:41;;;;;;;1.27;1.00;;;;;;;29.54;48.09;98527.50;5131777;27;38885;-77
2021/07/26 07:41:09;;;;;;;0.90;0.90;;;;;;;30.67;46.79;98546.09;5150926;27;40338;-79
2021/07/26 07:43:36;;;;;;;1.20;1.10;;;;;;;31.90;43.93;98548.09;5151943;27;43797;-81
2021/07/26 07:46:04;;;;;;;1.43;1.33;;;;;;;32.89;41.74;98568.78;5133116;27;41140;-80
2021/07/26 07:48:33;;;;;;;1.27;1.17;;;;;;;33.27;40.01;98581.00;5133638;27;38898;-78
2021/07/26 07:51:00;;;;;;;1.40;1.30;;;;;;;33.02;40.29;98579.44;5150758;27;42204;-77
2021/07/26 07:53:28;;;;;;;1.20;1.10;;;;;;;32.40;40.59;98579.31;5133392;27;41968;-81
2021/07/26 07:55:57;;;;;;;1.87;1.63;;;;;;;31.94;42.60;98562.97;5134159;27;42068;-81
2021/07/26 07:58:25;;;;;;;1.30;1.20;;;;;;;31.55;43.12;98568.06;5149796;27;40870;-80
2021/07/26 08:00:56;;;;;;;1.33;1.23;;;;;;;31.33;42.66;98572.47;5150356;27;42064;-81
2021/07/26 08:03:25;;;;;;;1.17;1.17;;;;;;;31.00;43.84;98543.72;5150762;27;42881;-80
2021/07/26 08:05:53;;;;;;;3.67;1.77;;;;;;;31.66;42.11;98570.00;5150184;27;41649;-81
2021/07/26 08:08:20;;;;;;;1.10;1.00;;;;;;;32.34;40.36;98568.50;5132510;27;38753;-80
2021/07/26 08:10:48;;;;;;;1.90;1.10;;;;;;;32.44;41.60;98572.28;5133330;27;41279;-80
2021/07/26 08:13:20;;;;;;;1.10;1.00;;;;;;;32.21;41.70;98566.88;5135429;27;41935;-79
2021/07/26 08:15:50;;;;;;;0.80;0.80;;;;;;;31.96;42.47;98547.97;5134667;27;41579;-77
2021/07/26 08:18:18;;;;;;;1.73;1.60;;;;;;;31.99;42.29;98560.34;5132371;27;39863;-80
2021/07/26 08:20:46;;;;;;;2.00;1.80;;;;;;;31.88;42.62;98556.56;5150453;27;40863;-77
2021/07/26 08:23:14;;;;;;;1.00;1.00;;;;;;;31.85;42.18;98553.44;5118584;27;43125;-77
2021/07/26 08:25:49;;;;;;;1.30;1.20;;;;;;;31.76;43.25;98548.34;5146808;27;43073;-78
2021/07/26 08:28:16;;;;;;;1.07;0.90;;;;;;;31.76;43.46;98553.84;5149707;27;38938;-76
2021/07/26 08:30:46;;;;;;;1.57;1.47;;;;;;;31.88;42.53;98552.97;5149979;27;41638;-76
2021/07/26 08:33:14;;;;;;;2.43;1.60;;;;;;;32.26;43.48;98556.03;5150836;27;43694;-76
2021/07/26 08:35:42;;;;;;;1.63;1.53;;;;;;;32.76;41.99;98564.44;5149556;27;42577;-77
2021/07/26 08:38:09;;;;;;;1.23;1.13;;;;;;;33.39;40.14;98581.75;5150114;27;40318;-79
2021/07/26 08:40:37;;;;;;;1.30;1.20;;;;;;;34.13;38.03;98590.56;5132100;27;40833;-78
2021/07/26 08:43:07;;;;;;;1.50;1.40;;;;;;;34.64;36.80;98602.25;5148795;27;46501;-77
2021/07/26 08:45:35;;;;;;;1.37;1.27;;;;;;;35.46;35.47;98615.81;5131615;27;42562;-78
2021/07/26 08:48:06;;;;;;;1.10;1.10;;;;;;;36.57;34.06;98608.28;5148694;27;39895;-77
2021/07/26 08:50:35;;;;;;;1.57;1.13;;;;;;;37.81;32.71;98614.59;5150266;27;40715;-77
2021/07/26 08:53:05;;;;;;;1.33;1.23;;;;;;;38.90;31.04;98620.38;5135026;27;42776;-76
2021/07/26 08:55:34;;;;;;;1.08;1.08;;;;;;;39.68;29.53;98637.03;5146279;27;41249;-77
2021/07/26 08:58:03;;;;;;;1.45;1.23;;;;;;;40.39;27.74;98641.91;5118582;27;40739;-79
2021/07/26 09:00:31;;;;;;;1.48;1.38;;;;;;;40.69;27.29;98649.03;5114713;27;42654;-77
2021/07/26 09:02:58;;;;;;;1.20;1.10;;;;;;;41.03;27.95;98623.91;5149299;27;42944;-82
2021/07/26 09:05:27;;;;;;;1.30;1.20;;;;;;;40.54;28.56;98608.44;5132944;27;42316;-81
2021/07/26 09:07:55;;;;;;;1.08;1.08;;;;;;;39.79;29.94;98610.88;5137899;27;41213;-78
2021/07/26 09:10:24;;;;;;;1.00;1.00;;;;;;;39.15;30.73;98598.91;5130619;27;42121;-78
2021/07/26 09:12:54;;;;;;;1.20;1.00;;;;;;;38.87;30.16;98615.38;5146697;27;41904;-78
2021/07/26 09:15:28;;;;;;;1.13;1.13;;;;;;;38.50;30.33;98616.66;5132275;27;41125;-79
2021/07/26 09:17:57;;;;;;;1.20;1.10;;;;;;;38.12;31.42;98597.97;5148887;27;40650;-76
2021/07/26 09:20:28;;;;;;;1.37;1.27;;;;;;;37.51;31.12;98614.59;5149188;27;41430;-76
2021/07/26 09:22:58;;;;;;;1.00;0.90;;;;;;;36.85;32.06;98606.19;5149088;27;42666;-76
2021/07/26 09:25:28;;;;;;;1.00;1.00;;;;;;;36.15;32.39;98608.31;5132368;27;41723;-76
2021/07/26 09:28:04;;;;;;;1.47;1.37;;;;;;;35.48;33.63;98588.84;5137150;27;39044;-76
2021/07/26 09:30:37;;;;;;;0.93;0.93;;;;;;;34.88;34.51;98587.13;5120717;27;40343;-76
2021/07/26 09:33:15;;;;;;;0.90;0.90;;;;;;;34.68;35.08;98582.22;5144773;27;42630;-76
2021/07/26 09:35:43;;;;;;;1.10;1.00;;;;;;;34.71;35.05;98575.38;5148098;27;41573;-78
2021/07/26 09:38:14;;;;;;;0.90;0.90;;;;;;;34.98;34.26;98591.94;5120480;27;38765;-78
2021/07/26 09:40:47;;;;;;;1.20;1.10;;;;;;;35.04;34.39;98591.72;5150959;27;41625;-79
2021/07/26 09:43:18;;;;;;;1.00;1.00;;;;;;;34.87;34.42;98572.53;5117771;27;41624;-80
2021/07/26 09:45:47;;;;;;;0.83;0.83;;;;;;;34.87;34.19;98578.06;5134423;27;42250;-79
2021/07/26 09:48:15;;;;;;;3.37;2.30;;;;;;;35.03;33.90;98584.53;5116653;27;40212;-79
2021/07/26 09:50:44;;;;;;;2.97;1.67;;;;;;;35.18;33.92;98581.94;5127780;27;40613;-77
2021/07/26 09:53:15;;;;;;;1.20;1.10;;;;;;;35.81;32.98;98591.31;5129165;27;43077;-78
2021/07/26 09:55:44;;;;;;;1.13;1.03;;;;;;;36.75;30.84;98600.63;5140717;27;42451;-76
2021/07/26 09:58:14;;;;;;;1.30;1.20;;;;;;;37.18;29.42;98610.44;5133972;27;40604;-76
2021/07/26 10:00:43;;;;;;;0.97;0.97;;;;;;;36.53;29.92;98615.44;5126808;27;41735;-75
2021/07/26 10:03:12;;;;;;;1.07;0.97;;;;;;;35.64;31.28;98613.47;5149922;27;43914;-76
2021/07/26 10:05:42;;;;;;;1.20;1.10;;;;;;;34.87;31.67;98601.97;5149523;27;42551;-77
2021/07/26 10:08:10;;;;;;;0.90;0.87;;;;;;;34.37;32.97;98597.53;5141130;27;40866;-76
2021/07/26 10:10:41;;;;;;;1.10;1.10;;;;;;;34.52;32.46;98583.97;5148622;27;42668;-77
2021/07/26 10:13:09;;;;;;;1.00;0.90;;;;;;;35.06;32.64;98586.78;5132262;27;42000;-81
2021/07/26 10:15:38;;;;;;;1.20;1.10;;;;;;;35.44;30.68;98606.97;5148941;27;42379;-80
2021/07/26 10:18:06;;;;;;;1.40;1.30;;;;;;;36.06;30.18;98598.06;5149115;27;39906;-79
2021/07/26 10:20:37;;;;;;;1.40;1.30;;;;;;;37.44;29.77;98603.00;5148741;27;41912;-81
2021/07/26 10:23:09;;;;;;;1.05;1.05;;;;;;;39.02;27.79;98618.94;5135980;27;42263;-78
2021/07/26 10:25:42;;;;;;;1.30;1.20;;;;;;;39.57;27.37;98618.81;5121008;27;42845;-79
2021/07/26 10:28:14;;;;;;;0.98;0.98;;;;;;;40.23;26.27;98621.81;5117261;27;40137;-78
2021/07/26 10:30:42;;;;;;;0.90;0.90;;;;;;;41.00;26.41;98602.25;5110211;27;41578;-85
2021/07/26 10:33:10;;;;;;;0.70;0.63;;;;;;;42.03;24.90;98614.25;5126529;27;41930;-77
2021/07/26 10:35:40;;;;;;;0.93;0.88;;;;;;;42.80;24.03;98615.19;5128683;27;41431;-79
2021/07/26 10:38:11;;;;;;;1.10;1.10;;;;;;;42.70;23.23;98620.97;5130674;27;38877;-76
2021/07/26 10:40:43;;;;;;;1.40;1.35;;;;;;;42.04;24.02;98625.03;5130578;27;41582;-78
2021/07/26 10:43:16;;;;;;;1.30;1.08;;;;;;;41.96;23.60;98625.78;5148325;27;43182;-82
2021/07/26 10:46:08;;;;;;;1.02;1.00;;;;;;;42.35;22.52;98624.47;5134517;27;43346;-81
2021/07/26 10:48:38;;;;;;;0.85;0.85;;;;;;;42.10;21.69;98617.44;5170238;27;40256;-78
2021/07/26 10:51:45;;;;;;;1.15;1.08;;;;;;;40.83;23.99;98609.16;5170094;27;42673;-80
2021/07/26 10:54:32;;;;;;;0.80;0.80;;;;;;;39.36;24.93;98607.88;5134285;27;41391;-78
2021/07/26 10:57:13;;;;;;;0.97;0.90;;;;;;;38.43;26.44;98591.22;5126454;27;41320;-77
2021/07/26 11:00:18;;;;;;;1.00;0.90;;;;;;;37.74;26.66;98592.75;5117582;27;39018;-78
2021/07/26 11:02:47;;;;;;;1.07;0.97;;;;;;;37.77;27.14;98585.03;5132881;27;41541;-79
2021/07/26 11:05:38;;;;;;;0.80;0.80;;;;;;;38.37;26.64;98584.03;5124562;27;42153;-80
2021/07/26 11:08:26;;;;;;;1.03;1.03;;;;;;;37.69;26.98;98583.66;5101678;27;41874;-79
2021/07/26 11:10:57;;;;;;;0.90;0.90;;;;;;;37.85;28.43;98565.09;5139025;27;39135;-79
2021/07/26 11:14:05;;;;;;;0.83;0.83;;;;;;;37.77;26.50;98573.97;5135713;27;40839;-79
2021/07/26 11:17:02;;;;;;;1.00;1.00;;;;;;;37.64;26.83;98576.19;5150054;27;43730;-79
2021/07/26 11:19:38;;;;;;;0.80;0.73;;;;;;;37.61;26.03;98582.25;5151015;27;42209;-76
2021/07/26 11:22:08;;;;;;;1.37;1.27;;;;;;;37.81;25.64;98581.44;5120602;27;39923;-78
2021/07/26 11:24:48;;;;;;;0.70;0.70;;;;;;;38.03;26.30;98565.34;5131790;27;40994;-78
2021/07/26 11:27:18;;;;;;;1.00;0.85;;;;;;;38.47;28.29;98550.78;5140464;27;43099;-78
2021/07/26 11:29:50;;;;;;;0.82;0.82;;;;;;;38.74;27.04;98555.94;5136109;27;42542;-78
2021/07/26 11:32:22;;;;;;;1.33;0.82;;;;;;;38.85;27.18;98551.97;5130348;27;40829;-80
2021/07/26 11:34:53;;;;;;;0.70;0.70;;;;;;;38.26;26.47;98554.78;5131352;27;42760;-80
2021/07/26 11:37:30;;;;;;;0.80;0.80;;;;;;;38.13;26.86;98541.53;5127644;27;42141;-80
2021/07/26 11:39:58;;;;;;;1.00;1.00;;;;;;;38.50;26.34;98544.69;5136467;27;41523;-80
2021/07/26 11:42:28;;;;;;;1.77;1.30;;;;;;;38.61;27.00;98551.84;5152014;27;40997;-82
2021/07/26 11:44:58;;;;;;;0.80;0.80;;;;;;;37.95;28.06;98532.75;5151966;27;41063;-81